Stations météo

réclame
Mon MeteoGroup
Hohenpeißenberg, Allemagne (10962): Température de l'air & dewpoint: 13.06.2018 20:00:00 - 19.06.2018 20:00:00 (CEST)Hohenpeißenberg, Allemagne (10962): Température de l'air 5cm & Température de l'air -5cm: 13.06.2018 20:00:00 - 19.06.2018 20:00:00 (CEST)Hohenpeißenberg, Allemagne (10962): Température de l'air -20cm & Température de l'air -100cm: 13.06.2018 20:00:00 - 19.06.2018 20:00:00 (CEST)Hohenpeißenberg, Allemagne (10962): Vitesse du vent & gusts: 13.06.2018 20:00:00 - 19.06.2018 20:00:00 (CEST)Hohenpeißenberg, Allemagne (10962): Direction du vent: 13.06.2018 20:00:00 - 19.06.2018 20:00:00 (CEST)Hohenpeißenberg, Allemagne (10962): visibility: 13.06.2018 20:00:00 - 19.06.2018 20:00:00 (CEST)Hohenpeißenberg, Allemagne (10962): Ensoleillement: 13.06.2018 20:00:00 - 19.06.2018 20:00:00 (CEST)Hohenpeißenberg, Allemagne (10962): Quantités de précipitations: 13.06.2018 20:00:00 - 19.06.2018 20:00:00 (CEST)
Date & Time tt [°C] td [°C] tt 5cm [°C] tt -5cm [°C] tt -20cm [°C] tt -100cm [°C] ff [km/h] ff [knt] fx [km/h] fx [knt] dd vv [km] sd [min] rr [mm]
19.06.2018 20:00:00 18,7 11,7 19,6 21,5 19,6 15,1 11 6 18 10 NNE 65 60 0,0
19.06.2018 19:00:00 19,9 12,0 21,8 21,8 19,7 15,1 13 7 19 10 NNE 65 22 0,0
19.06.2018 18:00:00 19,2 11,5 19,5 22,9 19,6 15,1 6 4 15 8 NE 65 3 0,0
19.06.2018 17:00:00 18,8 11,5 19,7 24,8 19,2 15,1 11 6 16 8 N 65 38 0,0
19.06.2018 16:00:00 20,1 12,1 24,6 24,0 18,9 15,1 10 5 19 11 N 50 33 0,0
19.06.2018 15:00:00 19,3 10,8 21,9 23,8 18,5 15,1 10 5 17 9 N 50 8 0,0
19.06.2018 14:00:00 19,1 11,0 22,6 24,4 17,9 15,1 8 4 16 8 N 50 30 0,0
19.06.2018 13:00:00 20,1 11,6 26,0 23,8 17,3 15,1 10 5 17 9 N 40 54 0,0
19.06.2018 12:00:00 18,4 10,6 22,7 21,6 16,8 15,1 5 3 11 6 NNW 40 43 0,0
19.06.2018 11:00:00 18,3 11,8 21,6 19,9 16,4 15,1 6 3 16 8 SW 35 39 0,0
19.06.2018 10:00:00 16,4 9,7 19,4 18,5 16,1 15,1 5 3 11 6 SSE 35 58 0,0
19.06.2018 09:00:00 16,4 11,9 18,5 16,6 16,0 15,1 5 3 9 5 WNW 30 33 0,0
19.06.2018 08:00:00 14,3 10,3 14,8 15,2 16,0 15,1 4 2 9 5 W 35 9 0,0
19.06.2018 07:00:00 14,1 9,9 14,2 14,4 16,2 15,1 6 4 11 6 NNW 40 5 0,0
19.06.2018 06:00:00 12,7 10,0 12,2 14,2 16,4 15,1 9 5 13 7 NNW 35 0 0,0
19.06.2018 05:00:00 12,3 9,6 10,9 14,4 16,6 15,1 10 6 16 9 N 30 0 0,0
19.06.2018 04:00:00 12,6 10,9 11,9 14,7 16,8 15,1 11 6 18 10 N 35 0 0,0
19.06.2018 03:00:00 13,2 11,2 12,1 15,3 17,0 15,1 11 6 19 10 W 30 0 0,0
19.06.2018 02:00:00 14,9 11,2 14,4 15,5 17,2 15,1 12 7 16 9 WSW 30 0 0,0
19.06.2018 01:00:00 14,8 10,8 14,0 15,5 17,5 15,1 8 5 12 7 SSW 30 0 0,0
19.06.2018 00:00:00 15,1 10,9 13,2 15,9 17,8 15,1 6 4 9 5 SSW 30 0 0,0
18.06.2018 23:00:00 15,3 11,3 13,1 16,6 18,0 15,1 5 3 11 6 SSW 30 0 0,0
18.06.2018 22:00:00 15,3 11,2 13,3 17,5 18,2 15,1 9 5 12 7 S 28 0 0,0
18.06.2018 21:00:00 14,9 11,7 13,6 18,7 18,3 15,1 9 5 14 7 SSW 28 25 0,0
18.06.2018 20:00:00 15,9 12,3 15,9 20,1 18,2 15,1 10 6 14 7 S 25 46 0,0
18.06.2018 19:00:00 17,7 13,0 19,3 20,5 18,0 15,1 8 4 13 7 S 25 38 0,0
18.06.2018 18:00:00 16,2 13,1 17,2 19,8 17,9 15,1 9 5 14 8 S 20 0 0,0
18.06.2018 17:00:00 16,0 12,8 16,8 20,3 17,8 15,1 9 5 13 7 S 20 0 0,0
18.06.2018 16:00:00 16,8 12,3 17,7 20,2 17,6 15,1 4 2 10 5 W 20 0 0,0
18.06.2018 15:00:00 16,6 12,5 18,3 20,9 17,3 15,1 7 4 16 9 NE 20 18 0,0
18.06.2018 14:00:00 16,1 11,5 18,4 21,0 16,9 15,1 8 5 18 10 N 20 26 0,0
18.06.2018 13:00:00 16,0 11,8 20,1 19,3 16,6 15,1 10 5 15 8 N 18 4 0,0
18.06.2018 12:00:00 14,7 11,4 16,9 18,6 16,4 15,1 8 4 14 7 N 18 0 0,0
18.06.2018 11:00:00 14,7 11,3 17,0 17,8 16,1 15,1 3 2 9 5 ENE 18 26 0,0
18.06.2018 10:00:00 14,8 11,2 15,9 16,8 16,0 15,1 2 1 8 4 SW 18 0 0,0
18.06.2018 09:00:00 13,4 10,9 14,5 15,7 16,0 15,1 3 2 11 6 SW 18 13 0,0
18.06.2018 08:00:00 11,8 10,7 12,7 14,7 16,1 15,1 8 5 14 8 NW 18 0 0,0
18.06.2018 07:00:00 11,3 10,1 11,4 14,4 16,3 15,1 11 6 17 9 N 15 0 0,0
18.06.2018 06:00:00 11,0 10,7 11,3 14,6 16,4 15,1 13 7 20 11 N 3,0 0 0,0
18.06.2018 05:00:00 11,9 11,7 12,2 14,9 16,5 15,1 12 7 17 9 N 0,1 0 0,0
18.06.2018 04:00:00 12,3 11,8 12,3 14,9 16,7 15,1 9 5 13 7 W 4,0 0 0,0
18.06.2018 03:00:00 12,3 11,9 12,3 15,1 16,8 15,1 9 5 16 9 WSW 8 0 0,1
18.06.2018 02:00:00 12,5 12,3 12,6 15,3 17,0 15,0 10 6 14 7 WSW - 0 0,3
18.06.2018 01:00:00 12,5 12,1 12,5 15,5 17,2 15,0 3 2 10 5 SW 5 0 0,2
18.06.2018 00:00:00 12,7 11,9 12,5 15,7 17,3 15,0 8 4 10 6 NE 0,2 0 0,4
17.06.2018 23:00:00 12,9 12,7 13,0 15,8 17,5 15,0 5 3 12 6 WNW 0,1 0 3,7
17.06.2018 22:00:00 12,6 12,5 12,8 16,3 17,9 15,0 10 5 24 13 WSW - 0 0,6
17.06.2018 21:00:00 13,0 12,1 12,7 16,8 18,1 15,0 14 7 22 12 W 4,0 0 0,6
17.06.2018 20:00:00 13,0 12,3 12,9 17,4 18,3 15,0 16 8 25 13 W 0,1 0 0,5
17.06.2018 19:00:00 13,8 10,0 13,5 17,8 18,5 15,0 6 4 24 13 NNE 10 0 1,4
17.06.2018 18:00:00 13,2 12,6 13,5 18,3 18,7 15,0 13 7 25 14 WNW 10 0 0,5
17.06.2018 17:00:00 14,7 11,8 13,7 19,1 18,8 15,0 7 4 21 11 WSW 15 0 5,4
17.06.2018 16:00:00 14,4 10,9 13,4 20,6 18,7 15,0 10 6 28 15 SSE 8 0 0,8
17.06.2018 15:00:00 16,5 12,4 15,4 22,2 18,4 15,0 9 5 16 9 N 18 11 0,2
17.06.2018 14:00:00 17,4 12,2 19,6 22,4 18,0 15,0 13 7 20 11 N 20 12 0,0
17.06.2018 13:00:00 17,2 12,2 20,0 22,3 17,7 15,0 14 8 21 11 N 15 35 0,0
17.06.2018 12:00:00 17,6 11,7 22,8 19,8 17,5 15,0 11 6 20 11 WNW 22 9 0,0
17.06.2018 11:00:00 15,4 10,9 16,8 19,0 17,3 15,0 9 5 21 11 NW 30 1 0,0
17.06.2018 10:00:00 16,2 9,9 18,5 18,7 17,1 15,0 9 5 29 15 WNW 40 13 0,0
17.06.2018 09:00:00 16,3 8,9 18,4 17,5 17,1 15,0 11 6 20 11 WNW 50 54 0,0
17.06.2018 08:00:00 15,9 8,0 17,0 15,9 17,3 15,0 14 8 26 14 W 60 11 0,0
17.06.2018 07:00:00 15,0 8,0 14,6 15,7 17,5 15,0 16 8 22 12 WSW 70 0 0,0
17.06.2018 06:00:00 15,0 7,6 14,3 15,6 17,7 15,0 13 7 23 12 WSW 70 0 0,0
17.06.2018 05:00:00 14,5 7,7 12,3 15,7 18,0 15,0 13 7 16 9 SW 60 0 0,0
17.06.2018 04:00:00 14,1 7,3 11,5 16,2 18,3 15,0 8 5 12 7 SSW 60 0 0,0
17.06.2018 03:00:00 15,9 7,0 13,2 16,8 18,6 15,0 8 5 10 6 SW 70 0 0,0
17.06.2018 02:00:00 15,7 7,2 13,4 17,4 19,0 15,0 6 4 9 5 SW 70 0 0,0
17.06.2018 01:00:00 15,9 7,4 12,9 17,9 19,3 15,0 4 2 6 3 SSW 70 0 0,0
17.06.2018 00:00:00 16,3 7,2 14,2 18,5 19,6 15,0 2 1 16 9 ENE 70 0 0,0
16.06.2018 23:00:00 16,6 6,0 14,8 19,2 20,0 15,0 13 7 24 13 NNE 70 0 0,0
16.06.2018 22:00:00 16,4 8,1 15,0 20,4 20,3 15,0 16 9 24 13 NNE 70 0 0,0
16.06.2018 21:00:00 16,9 8,2 15,6 21,9 20,5 15,0 14 8 21 11 NNE 70 26 0,0
16.06.2018 20:00:00 18,2 8,5 18,4 23,6 20,5 15,0 10 6 20 11 NNE 70 56 0,0
16.06.2018 19:00:00 19,7 5,4 21,8 25,2 20,3 15,0 10 5 18 10 NNE 70 60 0,0
16.06.2018 18:00:00 20,0 5,1 23,7 26,3 20,0 15,0 12 6 21 11 NNE 82 60 0,0
16.06.2018 17:00:00 19,7 3,6 23,5 27,0 19,5 15,0 10 5 23 12 NE 82 60 0,0
16.06.2018 16:00:00 20,2 6,1 25,0 27,1 18,8 15,0 10 6 22 12 NNE 82 60 0,0
16.06.2018 15:00:00 20,1 6,1 24,6 26,8 18,1 15,0 10 5 22 12 E 82 60 0,0
16.06.2018 14:00:00 19,2 3,5 24,7 25,6 17,4 15,0 8 5 19 11 NE 82 60 0,0
16.06.2018 13:00:00 18,6 6,8 23,9 24,1 16,7 15,0 9 5 18 10 ENE 80 60 0,0
16.06.2018 12:00:00 17,4 7,4 22,2 22,3 16,1 15,0 9 5 18 10 ENE 70 60 0,0
16.06.2018 11:00:00 16,0 6,9 22,3 20,1 15,7 15,1 9 5 18 10 ENE 70 60 0,0
16.06.2018 10:00:00 15,7 6,7 19,5 17,9 15,4 15,1 8 4 15 8 ESE 60 60 0,0
16.06.2018 09:00:00 15,3 6,2 17,9 15,6 15,3 15,1 8 5 14 7 SE 60 59 0,0
16.06.2018 08:00:00 14,4 7,1 15,4 13,9 15,4 15,1 8 4 14 7 ENE 60 60 0,0
16.06.2018 07:00:00 13,9 6,2 13,4 12,9 15,6 15,1 5 3 11 6 E 60 60 0,0
16.06.2018 06:00:00 13,0 6,0 10,7 12,9 15,9 15,1 6 3 14 7 ESE 60 10 0,0
16.06.2018 05:00:00 13,1 5,7 11,0 13,3 16,2 15,1 10 5 16 9 E 60 0 0,0
16.06.2018 04:00:00 13,0 5,9 11,2 13,7 16,5 15,1 11 6 19 10 ESE 60 0 0,0
16.06.2018 03:00:00 13,3 5,7 11,2 14,1 16,8 15,1 11 6 19 10 E 70 0 0,0
16.06.2018 02:00:00 13,4 6,0 11,2 14,7 17,1 15,1 11 6 17 9 ESE 60 0 0,0
16.06.2018 01:00:00 13,1 6,5 11,0 15,3 17,5 15,1 11 6 21 11 ESE 60 0 0,0
16.06.2018 00:00:00 13,9 6,5 12,2 16,0 17,9 15,1 11 6 20 11 E 70 0 0,0
15.06.2018 23:00:00 13,4 7,2 11,9 16,8 18,2 15,2 14 7 23 12 NE 70 0 0,0
15.06.2018 22:00:00 13,9 7,0 12,4 17,9 18,5 15,2 16 8 22 12 NE 70 0 0,0
15.06.2018 21:00:00 14,2 7,4 13,0 19,4 18,7 15,2 14 8 25 13 NNE 70 37 0,0
15.06.2018 20:00:00 15,7 6,9 16,4 21,1 18,7 15,2 15 8 26 14 NNE 70 60 0,0
15.06.2018 19:00:00 16,6 7,4 18,4 22,7 18,5 15,2 17 9 29 15 NNE 75 60 0,0
15.06.2018 18:00:00 17,7 7,7 21,7 23,6 18,1 15,2 13 7 24 13 NNE 75 60 0,0
15.06.2018 17:00:00 17,3 7,4 21,7 24,1 17,7 15,2 12 7 23 13 NNE 75 60 0,0
15.06.2018 16:00:00 17,4 7,1 21,8 24,1 17,1 15,2 13 7 24 13 N 60 60 0,0
15.06.2018 15:00:00 17,1 5,7 21,6 23,8 16,5 15,3 9 5 21 12 NE 60 60 0,0
15.06.2018 14:00:00 17,1 7,7 22,3 22,6 15,9 15,3 11 6 23 12 NNE 50 60 0,0
15.06.2018 13:00:00 16,1 6,7 21,6 21,5 15,3 15,3 10 5 19 10 NE 40 57 0,0
15.06.2018 12:00:00 15,5 6,9 20,8 19,0 14,9 15,3 8 4 17 9 NE 40 37 0,0
15.06.2018 11:00:00 14,6 6,5 19,3 17,8 14,4 15,3 9 5 16 8 NE 35 57 0,0
15.06.2018 10:00:00 13,9 5,8 17,3 16,2 14,1 15,3 9 5 17 9 ENE 35 55 0,0
15.06.2018 09:00:00 14,7 8,0 15,6 14,3 14,0 15,3 7 4 16 9 SE 40 60 0,0
15.06.2018 08:00:00 13,1 7,1 13,6 12,5 14,1 15,3 10 6 14 7 SE 40 60 0,0
15.06.2018 07:00:00 12,1 6,7 11,9 11,5 14,2 15,4 7 4 9 5 ESE 40 50 0,0
15.06.2018 06:00:00 11,7 6,3 8,6 11,5 14,4 15,4 4 2 5 3 ESE 30 0 0,0
15.06.2018 05:00:00 11,5 6,5 9,8 11,7 14,7 15,4 5 3 9 5 SE 15 0 0,0
15.06.2018 04:00:00 11,0 6,3 8,3 12,0 14,9 15,4 7 4 8 5 SE 20 0 0,0
15.06.2018 03:00:00 11,1 6,5 8,3 12,3 15,2 15,4 6 4 9 5 ESE 30 0 0,0
15.06.2018 02:00:00 11,0 7,5 8,8 12,8 15,4 15,4 8 5 11 6 ESE 40 0 0,0
15.06.2018 01:00:00 11,5 6,3 9,3 13,5 15,6 15,4 7 4 10 5 E 40 0 0,0
15.06.2018 00:00:00 11,5 6,8 10,3 14,1 15,8 15,5 8 4 11 6 NE 40 0 0,0
14.06.2018 23:00:00 11,9 7,0 11,5 14,6 16,1 15,5 10 5 14 7 NNE 30 0 0,0
14.06.2018 22:00:00 11,9 7,0 11,3 15,1 16,2 15,5 11 6 14 7 NNE 45 0 0,0
14.06.2018 21:00:00 12,0 7,2 10,6 16,2 16,3 15,5 8 5 13 7 NNE 40 53 0,0
14.06.2018 20:00:00 12,9 7,5 14,1 17,6 16,2 15,5 8 4 15 8 NE 35 57 0,0
14.06.2018 19:00:00 13,8 8,1 16,1 18,3 16,0 15,5 9 5 15 8 NNE 40 53 0,0
14.06.2018 18:00:00 13,4 7,6 16,4 18,2 15,8 15,5 10 5 16 9 N 40 7 0,0
14.06.2018 17:00:00 13,7 7,7 15,9 18,5 15,5 15,6 10 5 19 11 NE 35 18 0,0
14.06.2018 16:00:00 12,9 7,1 15,2 18,1 15,1 15,6 8 5 19 10 NE 35 19 0,0
14.06.2018 15:00:00 13,5 7,6 17,7 17,5 14,9 15,6 9 5 20 11 NE 25 24 0,0
14.06.2018 14:00:00 11,5 7,7 14,2 16,0 14,6 15,6 11 6 18 10 NE 18 0 0,0
14.06.2018 13:00:00 10,6 7,7 12,7 15,7 14,4 15,6 12 7 20 11 NNE 20 0 0,0
14.06.2018 12:00:00 10,8 7,6 13,9 16,3 14,1 15,6 13 7 20 11 NNE 25 22 0,0
14.06.2018 11:00:00 10,1 7,0 11,9 14,6 13,9 15,6 8 4 13 7 NNE 20 17 0,0
14.06.2018 10:00:00 9,8 7,0 11,7 13,5 13,8 15,6 9 5 13 7 NE 18 1 0,0
14.06.2018 09:00:00 8,7 7,2 9,1 12,8 13,7 15,7 7 4 13 7 ENE 12 21 0,0
14.06.2018 08:00:00 8,8 7,4 9,3 11,8 13,7 15,7 7 4 10 6 NE 1,5 23 0,0
14.06.2018 07:00:00 8,2 7,1 8,5 11,4 13,8 15,7 5 3 8 4 NE 30 29 0,0
14.06.2018 06:00:00 7,7 6,7 7,6 11,3 13,9 15,7 6 3 9 5 ENE 10 0 0,0
14.06.2018 05:00:00 7,7 7,5 7,9 11,5 14,0 15,7 7 4 9 5 N 10 0 0,0
14.06.2018 04:00:00 7,9 7,7 8,1 11,6 14,1 15,7 6 4 10 5 N 1,8 0 0,0
14.06.2018 03:00:00 8,0 7,8 8,2 11,7 14,2 15,7 6 3 11 6 NNW 1,5 0 0,0
14.06.2018 02:00:00 8,0 7,7 8,1 11,7 14,3 15,7 7 4 14 7 WNW 7 0 0,0
14.06.2018 01:00:00 7,8 7,6 8,1 11,8 14,5 15,7 10 6 17 9 W 1,9 0 0,0
14.06.2018 00:00:00 8,0 7,9 8,3 12,0 14,6 15,8 10 5 16 9 WSW 0,3 0 0,0
13.06.2018 23:00:00 8,1 8,1 8,5 12,1 14,7 15,8 10 6 18 10 W 0,1 0 0,0
13.06.2018 22:00:00 8,1 8,0 8,4 12,3 14,8 15,8 8 5 17 9 W 0,1 0 0,5
13.06.2018 21:00:00 8,2 8,1 8,6 12,5 14,9 15,8 9 5 21 11 NW 0,1 0 0,3
13.06.2018 20:00:00 8,1 8,0 8,7 12,8 15,0 15,8 11 6 21 12 NNW 0,1 0 0,2

tt = Température de l'air
td = dewpoint
tt 5cm = Température de l'air 5cm
tt -5cm = Température de l'air -5cm
tt -20cm = Température de l'air -20cm
tt -100cm = Température de l'air -100cm
ff = Vitesse du vent
fx = gusts
dd = Direction du vent
vv = visibility
sd = Ensoleillement
rr = Quantités de précipitations

stations d'obs. à proximité